createdAt,value
2023-03-16T00:02:10.621Z,3.00
2023-03-16T00:04:38.441Z,3.00
2023-03-16T00:07:10.470Z,2.90
2023-03-16T00:09:41.474Z,2.90
2023-03-16T00:12:19.091Z,2.90
2023-03-16T00:14:48.319Z,2.90
2023-03-16T00:17:20.189Z,2.90
2023-03-16T00:19:56.094Z,2.90
2023-03-16T00:22:28.287Z,2.90
2023-03-16T00:24:55.583Z,2.90
2023-03-16T00:27:24.139Z,2.90
2023-03-16T00:29:56.024Z,3.00
2023-03-16T00:32:32.147Z,2.90
2023-03-16T00:34:59.990Z,2.90
2023-03-16T00:37:27.549Z,3.00
2023-03-16T00:39:58.064Z,2.90
2023-03-16T00:42:27.653Z,2.90
2023-03-16T00:44:57.736Z,2.90
2023-03-16T00:47:28.515Z,2.90
2023-03-16T00:49:56.063Z,2.90
2023-03-16T00:52:23.612Z,2.90
2023-03-16T00:54:53.017Z,2.90
2023-03-16T00:57:21.636Z,2.90
2023-03-16T00:59:49.257Z,2.90
2023-03-16T01:02:19.356Z,2.90
2023-03-16T01:04:46.216Z,2.80
2023-03-16T01:07:14.532Z,2.90
2023-03-16T01:09:42.640Z,2.90
2023-03-16T01:12:15.340Z,2.80
2023-03-16T01:14:42.882Z,2.90
2023-03-16T01:17:10.129Z,2.90
2023-03-16T01:19:38.101Z,2.90
2023-03-16T01:22:09.849Z,2.90
2023-03-16T01:24:37.510Z,2.90
2023-03-16T01:27:05.134Z,2.90
2023-03-16T01:29:33.079Z,2.90
2023-03-16T01:32:00.871Z,2.80
2023-03-16T01:34:28.652Z,2.80
2023-03-16T01:36:55.796Z,2.80
2023-03-16T01:39:23.299Z,2.80
2023-03-16T01:41:51.091Z,2.80
2023-03-16T01:44:24.606Z,2.80
2023-03-16T01:46:51.504Z,2.80
2023-03-16T01:49:23.771Z,2.80
2023-03-16T01:52:16.946Z,2.80
2023-03-16T01:55:18.324Z,2.80
2023-03-16T01:57:47.024Z,2.80
2023-03-16T02:00:23.760Z,2.80
2023-03-16T02:02:57.107Z,2.80
2023-03-16T02:05:33.464Z,2.80
2023-03-16T02:08:02.380Z,2.80
2023-03-16T02:10:30.393Z,2.90
2023-03-16T02:12:58.803Z,2.80
2023-03-16T02:15:27.381Z,2.80
2023-03-16T02:17:54.366Z,2.80
2023-03-16T02:20:49.006Z,2.80
2023-03-16T02:23:19.171Z,2.80
2023-03-16T02:25:57.386Z,2.80
2023-03-16T02:28:34.029Z,2.80
2023-03-16T02:31:02.141Z,2.80
2023-03-16T02:33:30.107Z,2.70
2023-03-16T02:35:57.177Z,2.70
2023-03-16T02:38:24.071Z,2.70
2023-03-16T02:41:10.722Z,2.70
2023-03-16T02:43:40.024Z,2.70
2023-03-16T02:46:07.518Z,2.70
2023-03-16T02:48:45.692Z,2.70
2023-03-16T02:51:12.972Z,2.80
2023-03-16T02:53:40.166Z,2.80
2023-03-16T02:56:07.437Z,2.80
2023-03-16T02:58:34.786Z,2.80
2023-03-16T03:01:01.796Z,2.80
2023-03-16T03:03:28.678Z,2.90
2023-03-16T03:05:55.576Z,2.90
2023-03-16T03:08:23.519Z,2.90
2023-03-16T03:10:50.566Z,3.00
2023-03-16T03:13:17.628Z,3.00
2023-03-16T03:15:45.314Z,3.00
2023-03-16T03:18:12.286Z,3.10
2023-03-16T03:20:39.276Z,3.10
2023-03-16T03:23:06.212Z,3.10
2023-03-16T03:25:35.933Z,3.10
2023-03-16T03:28:05.625Z,3.10
2023-03-16T03:30:32.638Z,3.10
2023-03-16T03:32:59.609Z,3.20
2023-03-16T03:35:26.725Z,3.10
2023-03-16T03:37:53.730Z,3.20
2023-03-16T03:40:21.531Z,3.20
2023-03-16T03:42:49.608Z,3.20
2023-03-16T03:45:17.192Z,3.20
2023-03-16T03:47:44.639Z,3.20
2023-03-16T03:50:13.880Z,3.20
2023-03-16T03:52:41.188Z,3.20
2023-03-16T03:55:08.836Z,3.30
2023-03-16T03:57:35.946Z,3.30
2023-03-16T04:00:07.908Z,3.30
2023-03-16T04:02:34.944Z,3.30
2023-03-16T04:05:01.862Z,3.30
2023-03-16T04:07:28.661Z,3.30
2023-03-16T04:09:55.651Z,3.30
2023-03-16T04:12:22.539Z,3.30
2023-03-16T04:14:49.381Z,3.30
2023-03-16T04:17:16.221Z,3.30
2023-03-16T04:19:43.352Z,3.30
2023-03-16T04:22:10.283Z,3.30
2023-03-16T04:24:37.040Z,3.30
2023-03-16T04:27:03.987Z,3.40
2023-03-16T04:29:32.025Z,3.40
2023-03-16T04:31:58.810Z,3.40
2023-03-16T04:34:25.769Z,3.40
2023-03-16T04:36:53.232Z,3.40
2023-03-16T04:39:23.599Z,3.40
2023-03-16T04:41:51.487Z,3.40
2023-03-16T04:44:18.454Z,3.40
2023-03-16T04:46:45.484Z,3.30
2023-03-16T04:49:12.352Z,3.40
2023-03-16T04:51:40.714Z,3.30
2023-03-16T04:54:07.755Z,3.30
2023-03-16T04:56:34.692Z,3.30
2023-03-16T04:59:01.521Z,3.30
2023-03-16T05:01:29.406Z,3.30
2023-03-16T05:03:57.980Z,3.40
2023-03-16T05:06:26.383Z,3.30
2023-03-16T05:08:53.230Z,3.40
2023-03-16T05:11:20.251Z,3.40
2023-03-16T05:13:47.076Z,3.40
2023-03-16T05:16:13.946Z,3.40
2023-03-16T05:18:41.666Z,3.40
2023-03-16T05:21:08.603Z,3.40
2023-03-16T05:23:35.681Z,3.40
2023-03-16T05:26:02.861Z,3.40
2023-03-16T05:28:29.757Z,3.40
2023-03-16T05:30:57.874Z,3.40
2023-03-16T05:33:24.714Z,3.40
2023-03-16T05:35:52.329Z,3.30
2023-03-16T05:38:19.141Z,3.30
2023-03-16T05:40:46.344Z,3.30
2023-03-16T05:43:13.409Z,3.40
2023-03-16T05:45:40.374Z,3.40
2023-03-16T05:48:07.217Z,3.30
2023-03-16T05:50:34.559Z,3.40
2023-03-16T05:53:01.473Z,3.40
2023-03-16T05:55:28.306Z,3.40
2023-03-16T05:57:55.348Z,3.40
2023-03-16T06:00:22.869Z,3.40
2023-03-16T06:02:51.476Z,3.40
2023-03-16T06:05:21.794Z,3.40
2023-03-16T06:07:50.178Z,3.40
2023-03-16T06:10:18.248Z,3.40
2023-03-16T06:12:45.287Z,3.40
2023-03-16T06:15:12.727Z,3.40
2023-03-16T06:17:41.609Z,3.50
2023-03-16T06:20:11.378Z,3.50
2023-03-16T06:22:40.078Z,3.50
2023-03-16T06:25:09.843Z,3.60
2023-03-16T06:27:37.196Z,3.60
2023-03-16T06:30:06.995Z,3.60
2023-03-16T06:32:33.975Z,3.60
2023-03-16T06:35:02.323Z,3.70
2023-03-16T06:37:30.206Z,3.70
2023-03-16T06:39:57.270Z,3.70
2023-03-16T06:42:24.097Z,3.70
2023-03-16T06:44:52.483Z,3.80
2023-03-16T06:47:20.392Z,3.80
2023-03-16T06:49:47.484Z,3.80
2023-03-16T06:52:15.007Z,3.90
2023-03-16T06:54:41.907Z,3.90
2023-03-16T06:57:09.360Z,4.00
2023-03-16T06:59:36.407Z,4.00
2023-03-16T07:02:03.213Z,4.00
2023-03-16T07:04:30.089Z,4.10
2023-03-16T07:06:56.989Z,4.10
2023-03-16T07:09:24.049Z,4.10
2023-03-16T07:11:52.683Z,4.20
2023-03-16T07:14:20.079Z,4.30
2023-03-16T07:16:47.072Z,4.30
2023-03-16T07:19:13.990Z,4.40
2023-03-16T07:21:44.372Z,4.50
2023-03-16T07:24:12.869Z,4.50
2023-03-16T07:26:39.984Z,4.50
2023-03-16T07:29:06.942Z,4.50
2023-03-16T07:31:34.684Z,4.60
2023-03-16T07:34:02.495Z,4.60
2023-03-16T07:36:29.782Z,4.60
2023-03-16T07:38:56.700Z,4.60
2023-03-16T07:41:24.733Z,4.70
2023-03-16T07:43:52.306Z,4.70
2023-03-16T07:46:19.430Z,4.70
2023-03-16T07:48:46.516Z,4.80
2023-03-16T07:51:14.088Z,4.80
2023-03-16T07:53:41.665Z,4.90
2023-03-16T07:56:08.871Z,4.90
2023-03-16T07:58:35.982Z,5.00
2023-03-16T08:01:02.996Z,5.00
2023-03-16T08:03:32.116Z,5.10
2023-03-16T08:05:59.163Z,5.10
2023-03-16T08:08:26.160Z,5.10
2023-03-16T08:10:55.562Z,5.20
2023-03-16T08:13:23.538Z,5.20
2023-03-16T08:16:01.973Z,5.30
2023-03-16T08:18:30.076Z,5.30
2023-03-16T08:20:57.569Z,5.40
2023-03-16T08:23:26.025Z,5.50
2023-03-16T08:25:59.872Z,5.60
2023-03-16T08:28:26.776Z,5.60
2023-03-16T08:30:55.610Z,5.80
2023-03-16T08:33:23.514Z,5.90
2023-03-16T08:35:50.864Z,6.00
2023-03-16T08:38:19.301Z,6.10
2023-03-16T08:40:49.355Z,6.20
2023-03-16T08:43:18.046Z,6.30
2023-03-16T08:45:46.502Z,6.40
2023-03-16T08:48:14.351Z,6.40
2023-03-16T08:50:44.130Z,6.30
2023-03-16T08:53:12.356Z,6.30
2023-03-16T08:55:41.931Z,6.30
2023-03-16T08:58:10.657Z,6.30
2023-03-16T09:00:38.364Z,6.20
2023-03-16T09:03:06.137Z,6.20
2023-03-16T09:05:34.149Z,6.20
2023-03-16T09:08:01.636Z,6.20
2023-03-16T09:10:29.260Z,6.30
2023-03-16T09:12:56.768Z,6.30
2023-03-16T09:15:23.696Z,6.30
2023-03-16T09:17:50.569Z,6.20
2023-03-16T09:20:22.630Z,6.20
2023-03-16T09:22:54.545Z,6.20
2023-03-16T09:25:24.499Z,6.10
2023-03-16T09:27:52.669Z,6.10
2023-03-16T09:30:19.911Z,6.10
2023-03-16T09:32:48.957Z,6.10
2023-03-16T09:35:16.053Z,6.10
2023-03-16T09:38:04.315Z,6.10
2023-03-16T09:40:31.755Z,6.10
2023-03-16T09:43:10.935Z,6.10
2023-03-16T09:45:56.557Z,6.10
2023-03-16T09:48:25.285Z,6.20
2023-03-16T09:50:54.591Z,6.30
2023-03-16T09:53:34.316Z,6.30
2023-03-16T09:56:10.551Z,6.40
2023-03-16T09:58:37.528Z,6.50
2023-03-16T10:01:10.017Z,6.60
2023-03-16T10:03:59.078Z,6.70
2023-03-16T10:06:26.800Z,6.70
2023-03-16T10:09:32.054Z,6.70
2023-03-16T10:12:03.844Z,6.80
2023-03-16T10:14:39.498Z,6.80
2023-03-16T10:17:24.036Z,6.70
2023-03-16T10:20:08.911Z,6.60
2023-03-16T10:22:39.312Z,6.60
2023-03-16T10:25:34.270Z,6.50
2023-03-16T10:28:01.498Z,6.50
2023-03-16T10:30:32.439Z,6.40
2023-03-16T10:33:06.236Z,6.40
2023-03-16T10:35:56.759Z,6.40
2023-03-16T10:38:49.589Z,6.30
2023-03-16T10:41:22.521Z,6.30
2023-03-16T10:44:00.332Z,6.30
2023-03-16T10:46:28.944Z,6.20
2023-03-16T10:49:00.598Z,6.20
2023-03-16T10:51:38.030Z,6.30
2023-03-16T10:54:14.253Z,6.30
2023-03-16T10:56:41.285Z,6.30
2023-03-16T10:59:27.794Z,6.30
2023-03-16T11:01:55.362Z,6.30
2023-03-16T11:04:22.899Z,6.40
2023-03-16T11:06:56.513Z,6.40
2023-03-16T11:09:33.187Z,6.40
2023-03-16T11:12:12.211Z,6.50
2023-03-16T11:14:43.725Z,6.50
2023-03-16T11:17:28.428Z,6.60
2023-03-16T11:19:59.267Z,6.60
2023-03-16T11:22:27.504Z,6.70
2023-03-16T11:25:04.508Z,6.70
2023-03-16T11:27:53.113Z,6.70
2023-03-16T11:30:29.178Z,6.70
2023-03-16T11:32:59.814Z,6.70
2023-03-16T11:35:58.686Z,6.70
2023-03-16T11:38:45.241Z,6.70
2023-03-16T11:41:22.398Z,6.70
2023-03-16T11:44:40.767Z,6.80
2023-03-16T11:47:24.402Z,6.90
2023-03-16T11:50:12.986Z,7.00
2023-03-16T11:52:48.388Z,7.10
2023-03-16T11:55:39.938Z,7.10
2023-03-16T11:58:17.265Z,7.20
2023-03-16T12:00:53.118Z,7.40
2023-03-16T12:03:53.910Z,7.50
2023-03-16T12:06:50.750Z,7.60
2023-03-16T12:09:41.054Z,7.70
2023-03-16T12:12:13.972Z,7.80
2023-03-16T12:14:47.074Z,7.80
2023-03-16T12:17:30.597Z,7.80
2023-03-16T12:20:05.865Z,7.90
2023-03-16T12:22:44.402Z,8.00
2023-03-16T12:25:35.031Z,8.20
2023-03-16T12:28:07.597Z,8.30
2023-03-16T12:31:13.236Z,8.60
2023-03-16T12:34:24.410Z,8.90
2023-03-16T12:37:14.387Z,9.40
2023-03-16T12:39:47.223Z,9.70
2023-03-16T12:42:40.485Z,10.00
2023-03-16T12:45:23.202Z,10.40
2023-03-16T12:48:04.204Z,10.60
2023-03-16T12:50:31.820Z,10.80
2023-03-16T12:52:58.908Z,11.00
2023-03-16T12:55:33.469Z,11.00
2023-03-16T12:58:04.584Z,11.00
2023-03-16T13:00:40.589Z,10.90
2023-03-16T13:03:15.485Z,10.80
2023-03-16T13:06:03.394Z,10.70
2023-03-16T13:08:44.061Z,10.60
2023-03-16T13:11:14.725Z,10.40
2023-03-16T13:14:12.643Z,10.30
2023-03-16T13:16:40.924Z,10.10
2023-03-16T13:19:19.913Z,10.00
2023-03-16T13:21:47.043Z,9.90
2023-03-16T13:24:15.811Z,9.80
2023-03-16T13:26:45.586Z,9.70
2023-03-16T13:29:28.606Z,9.70
2023-03-16T13:32:02.488Z,9.60
2023-03-16T13:34:37.583Z,9.50
2023-03-16T13:37:12.516Z,9.40
2023-03-16T13:39:39.290Z,9.30
2023-03-16T13:42:17.856Z,9.30
2023-03-16T13:44:45.441Z,9.40
2023-03-16T13:47:19.362Z,9.80
2023-03-16T13:49:55.545Z,10.30
2023-03-16T13:52:27.862Z,11.00
2023-03-16T13:54:56.392Z,11.70
2023-03-16T13:57:29.523Z,12.10
2023-03-16T14:00:15.591Z,12.30
2023-03-16T14:02:48.800Z,12.30
2023-03-16T14:05:30.905Z,12.20
2023-03-16T14:08:00.621Z,12.10
2023-03-16T14:10:33.413Z,11.90
2023-03-16T14:13:29.055Z,11.70
2023-03-16T14:15:59.145Z,11.50
2023-03-16T14:18:53.845Z,11.30
2023-03-16T14:21:27.001Z,11.10
2023-03-16T14:24:06.828Z,11.00
2023-03-16T14:26:42.056Z,11.00
2023-03-16T14:29:26.565Z,11.00
2023-03-16T14:31:54.622Z,11.00
2023-03-16T14:34:22.057Z,10.90
2023-03-16T14:36:49.124Z,10.90
2023-03-16T14:39:21.022Z,10.80
2023-03-16T14:41:52.326Z,10.80
2023-03-16T14:44:24.189Z,10.70
2023-03-16T14:46:54.424Z,10.60
2023-03-16T14:49:37.381Z,10.60
2023-03-16T14:52:16.316Z,10.50
2023-03-16T14:54:43.127Z,10.50
2023-03-16T14:57:16.905Z,10.50
2023-03-16T14:59:44.004Z,10.50
2023-03-16T15:02:19.684Z,10.60
2023-03-16T15:04:48.446Z,10.80
2023-03-16T15:07:20.933Z,11.00
2023-03-16T15:09:49.507Z,11.10
2023-03-16T15:12:19.581Z,11.30
2023-03-16T15:15:05.922Z,11.40
2023-03-16T15:17:33.106Z,11.40
2023-03-16T15:20:00.205Z,11.40
2023-03-16T15:22:38.127Z,11.30
2023-03-16T15:25:23.204Z,11.20
2023-03-16T15:27:51.416Z,11.20
2023-03-16T15:30:21.907Z,11.00
2023-03-16T15:33:00.574Z,10.90
2023-03-16T15:35:28.238Z,10.70
2023-03-16T15:37:55.305Z,10.60
2023-03-16T15:40:26.677Z,10.50
2023-03-16T15:42:53.728Z,10.40
2023-03-16T15:45:22.627Z,10.30
2023-03-16T15:48:11.731Z,10.30
2023-03-16T15:51:26.402Z,10.30
2023-03-16T15:54:02.411Z,10.20
2023-03-16T15:56:41.231Z,10.20
2023-03-16T15:59:19.052Z,10.10
2023-03-16T16:01:47.896Z,10.10
2023-03-16T16:04:20.155Z,10.00
2023-03-16T16:06:48.016Z,9.90
2023-03-16T16:09:15.492Z,9.90
2023-03-16T16:11:42.560Z,9.90
2023-03-16T16:14:18.441Z,9.80
2023-03-16T16:16:46.180Z,9.80
2023-03-16T16:19:16.752Z,9.70
2023-03-16T16:21:43.931Z,9.70
2023-03-16T16:24:11.392Z,9.70
2023-03-16T16:26:54.338Z,9.70
2023-03-16T16:29:24.311Z,9.60
2023-03-16T16:31:52.278Z,9.60
2023-03-16T16:34:24.014Z,9.60
2023-03-16T16:36:51.520Z,9.60
2023-03-16T16:39:18.352Z,9.60
2023-03-16T16:41:45.994Z,9.60
2023-03-16T16:44:34.364Z,9.60
2023-03-16T16:47:02.521Z,9.50
2023-03-16T16:49:31.270Z,9.50
2023-03-16T16:51:58.921Z,9.40
2023-03-16T16:54:31.039Z,9.30
2023-03-16T16:56:59.770Z,9.20
2023-03-16T16:59:39.823Z,9.10
2023-03-16T17:02:39.309Z,9.00
2023-03-16T17:05:13.172Z,8.90
2023-03-16T17:07:40.184Z,8.80
2023-03-16T17:10:07.937Z,8.70
2023-03-16T17:12:35.688Z,8.60
2023-03-16T17:15:02.711Z,8.50
2023-03-16T17:17:29.742Z,8.40
2023-03-16T17:19:56.587Z,8.30
2023-03-16T17:22:28.318Z,8.20
2023-03-16T17:24:55.368Z,8.20
2023-03-16T17:27:26.996Z,8.10
2023-03-16T17:29:54.822Z,8.00
2023-03-16T17:32:22.859Z,7.90
2023-03-16T17:34:50.926Z,7.80
2023-03-16T17:37:20.177Z,7.70
2023-03-16T17:39:47.319Z,7.70
2023-03-16T17:42:19.977Z,7.60
2023-03-16T17:44:51.247Z,7.60
2023-03-16T17:47:27.308Z,7.50
2023-03-16T17:49:54.995Z,7.50
2023-03-16T17:55:11.564Z,7.40
2023-03-16T17:57:45.130Z,7.40
2023-03-16T18:00:29.107Z,7.40
2023-03-16T18:03:13.007Z,7.40
2023-03-16T18:05:41.426Z,7.40
2023-03-16T18:08:22.511Z,7.40
2023-03-16T18:10:56.409Z,7.40
2023-03-16T18:13:36.351Z,7.40
2023-03-16T18:16:06.072Z,7.50
2023-03-16T18:18:37.160Z,7.50
2023-03-16T18:21:04.298Z,7.50
2023-03-16T18:23:34.631Z,7.50
2023-03-16T18:26:04.006Z,7.50
2023-03-16T18:28:31.783Z,7.60
2023-03-16T18:31:00.109Z,7.60
2023-03-16T18:33:39.201Z,7.60
2023-03-16T18:36:12.959Z,7.60
2023-03-16T18:38:48.357Z,7.60
2023-03-16T18:41:18.596Z,7.60
2023-03-16T18:43:46.511Z,7.60
2023-03-16T18:46:35.442Z,7.70
2023-03-16T18:49:12.714Z,7.70
2023-03-16T18:51:40.411Z,7.70
2023-03-16T18:54:35.539Z,7.80
2023-03-16T18:57:04.421Z,7.70
2023-03-16T18:59:32.170Z,7.70
2023-03-16T19:01:59.425Z,7.70
2023-03-16T19:04:29.421Z,7.70
2023-03-16T19:06:57.361Z,7.70
2023-03-16T19:09:29.968Z,7.70
2023-03-16T19:11:57.759Z,7.60
2023-03-16T19:14:32.043Z,7.60
2023-03-16T19:16:59.284Z,7.60
2023-03-16T19:19:27.349Z,7.70
2023-03-16T19:21:57.353Z,7.70
2023-03-16T19:24:28.004Z,7.70
2023-03-16T19:26:56.674Z,7.60
2023-03-16T19:29:30.985Z,7.60
2023-03-16T19:31:58.713Z,7.60
2023-03-16T19:34:26.041Z,7.60
2023-03-16T19:36:53.055Z,7.60
2023-03-16T19:39:20.686Z,7.60
2023-03-16T19:41:52.732Z,7.70
2023-03-16T19:44:20.639Z,7.70
2023-03-16T19:46:48.061Z,7.70
2023-03-16T19:49:20.169Z,7.70
2023-03-16T19:51:48.489Z,7.70
2023-03-16T19:54:33.689Z,7.80
2023-03-16T19:57:07.336Z,7.70
2023-03-16T19:59:35.571Z,7.70
2023-03-16T20:02:03.191Z,7.70
2023-03-16T20:04:30.680Z,7.70
2023-03-16T20:06:57.564Z,7.70
2023-03-16T20:09:24.374Z,7.70
2023-03-16T20:11:51.275Z,7.70
2023-03-16T20:14:29.100Z,7.70
2023-03-16T20:16:56.134Z,7.70
2023-03-16T20:19:23.322Z,7.70
2023-03-16T20:21:50.411Z,7.80
2023-03-16T20:24:20.961Z,7.80
2023-03-16T20:26:51.315Z,7.80
2023-03-16T20:29:38.648Z,7.80
2023-03-16T20:32:28.667Z,7.80
2023-03-16T20:34:55.692Z,7.80
2023-03-16T20:37:25.447Z,7.80
2023-03-16T20:39:53.949Z,7.70
2023-03-16T20:42:31.705Z,7.70
2023-03-16T20:44:58.851Z,7.70
2023-03-16T20:47:26.114Z,7.70
2023-03-16T20:49:55.111Z,7.70
2023-03-16T20:52:25.270Z,7.70
2023-03-16T20:54:52.614Z,7.80
2023-03-16T20:57:24.394Z,7.80
2023-03-16T20:59:53.921Z,7.80
2023-03-16T21:02:28.732Z,7.80
2023-03-16T21:04:57.369Z,7.80
2023-03-16T21:07:24.345Z,7.80
2023-03-16T21:09:51.656Z,7.80
2023-03-16T21:12:24.073Z,7.80
2023-03-16T21:14:51.623Z,7.80
2023-03-16T21:17:26.607Z,7.80
2023-03-16T21:19:53.951Z,7.80
2023-03-16T21:22:27.176Z,7.80
2023-03-16T21:24:56.045Z,7.80
2023-03-16T21:27:27.351Z,7.80
2023-03-16T21:29:56.082Z,7.80
2023-03-16T21:32:25.884Z,7.80
2023-03-16T21:34:54.142Z,7.80
2023-03-16T21:37:26.991Z,7.80
2023-03-16T21:39:53.853Z,7.70
2023-03-16T21:42:21.388Z,7.70
2023-03-16T21:44:48.498Z,7.70
2023-03-16T21:47:27.386Z,7.70
2023-03-16T21:49:54.986Z,7.70
2023-03-16T21:52:28.216Z,7.60
2023-03-16T21:54:58.046Z,7.60
2023-03-16T21:57:25.066Z,7.70
2023-03-16T21:59:51.941Z,7.70
2023-03-16T22:02:24.614Z,7.70
2023-03-16T22:04:52.057Z,7.70
2023-03-16T22:07:19.610Z,7.70
2023-03-16T22:09:46.590Z,7.70
2023-03-16T22:12:14.076Z,7.70
2023-03-16T22:14:41.296Z,7.70
2023-03-16T22:17:19.175Z,7.70
2023-03-16T22:19:46.270Z,7.70
2023-03-16T22:22:16.851Z,7.60
2023-03-16T22:24:43.820Z,7.60
2023-03-16T22:27:20.708Z,7.60
2023-03-16T22:29:49.897Z,7.60
2023-03-16T22:32:19.680Z,7.60
2023-03-16T22:34:48.805Z,7.60
2023-03-16T22:37:21.082Z,7.60
2023-03-16T22:39:50.413Z,7.60
2023-03-16T22:42:34.353Z,7.60
2023-03-16T22:45:01.287Z,7.50
2023-03-16T22:47:33.621Z,7.50
2023-03-16T22:50:00.825Z,7.50
2023-03-16T22:52:34.756Z,7.40
2023-03-16T22:55:03.898Z,7.40
2023-03-16T22:57:31.526Z,7.40
2023-03-16T22:59:59.906Z,7.30
2023-03-16T23:02:28.932Z,7.30
2023-03-16T23:04:56.070Z,7.20
2023-03-16T23:07:23.313Z,7.10
2023-03-16T23:09:50.188Z,7.10
2023-03-16T23:12:22.110Z,7.00
2023-03-16T23:14:49.326Z,7.00
2023-03-16T23:17:18.805Z,6.90
2023-03-16T23:19:46.246Z,6.90
2023-03-16T23:22:13.360Z,6.80
2023-03-16T23:24:40.994Z,6.80
2023-03-16T23:27:19.123Z,6.80
2023-03-16T23:29:46.662Z,6.70
2023-03-16T23:32:15.417Z,6.70
2023-03-16T23:34:42.336Z,6.60
2023-03-16T23:37:09.439Z,6.60
2023-03-16T23:39:36.473Z,6.50
2023-03-16T23:42:04.136Z,6.50
2023-03-16T23:44:31.319Z,6.40
2023-03-16T23:46:59.919Z,6.40
2023-03-16T23:49:33.292Z,6.30
2023-03-16T23:52:01.839Z,6.30
2023-03-16T23:54:33.302Z,6.30
2023-03-16T23:57:00.449Z,6.20
2023-03-16T23:59:27.820Z,6.20
